Time;durP1;ratioP1;P1;durP2;ratioP2;P2;SDS_P1;SDS_P2;PMS_P1;PMS_P2;Temp;Humidity;BMP_temperature;BMP_pressure;BME280_temperature;BME280_humidity;BME280_pressure;Samples;Min_cycle;Max_cycle;Signal;HPM_P1;HPM_P2
2024/04/02 00:00:05;;;;;;;;;;;;;;;21.24;42.06;99898.61;102917;1294;63738;-79
2024/04/02 00:02:31;;;;;;;;;;;;;;;21.23;42.08;99898.65;102693;1292;64001;-80
2024/04/02 00:04:57;;;;;;;;;;;;;;;21.24;42.10;99897.55;102962;1291;63792;-79
2024/04/02 00:07:22;;;;;;;;;;;;;;;21.23;42.00;99892.07;102706;1290;64311;-79
2024/04/02 00:09:48;;;;;;;;;;;;;;;21.23;42.01;99891.48;102688;1294;64038;-80
2024/04/02 00:12:14;;;;;;;;;;;;;;;21.23;42.07;99888.67;103087;1294;64533;-80
2024/04/02 00:14:39;;;;;;;;;;;;;;;21.23;42.01;99888.45;102737;1290;75872;-81
2024/04/02 00:17:05;;;;;;;;;;;;;;;21.23;42.04;99891.52;103004;1292;63006;-80
2024/04/02 00:19:30;;;;;;;;;;;;;;;21.23;42.11;99890.45;102925;1292;63002;-80
2024/04/02 00:21:56;;;;;;;;;;;;;;;21.23;42.06;99894.90;102687;1294;63006;-81
2024/04/02 00:24:22;;;;;;;;;;;;;;;21.23;42.02;99892.60;102665;1292;63102;-81
2024/04/02 00:26:47;;;;;;;;;;;;;;;21.22;42.02;99892.46;102736;1291;77507;-80
2024/04/02 00:29:13;;;;;;;;;;;;;;;21.23;41.96;99900.51;102723;1291;63042;-80
2024/04/02 00:31:39;;;;;;;;;;;;;;;21.23;42.04;99899.23;102742;1292;63075;-80
2024/04/02 00:34:05;;;;;;;;;;;;;;;21.23;41.94;99892.80;102695;1292;63025;-79
2024/04/02 00:36:30;;;;;;;;;;;;;;;21.23;41.98;99892.26;102746;1289;64141;-80
2024/04/02 00:38:56;;;;;;;;;;;;;;;21.22;41.98;99889.42;103069;1290;62929;-80
2024/04/02 00:41:22;;;;;;;;;;;;;;;21.21;42.01;99881.97;102933;1292;62936;-82
2024/04/02 00:43:47;;;;;;;;;;;;;;;21.22;41.94;99881.08;102921;1292;63000;-80
2024/04/02 00:46:13;;;;;;;;;;;;;;;21.22;41.91;99880.67;102742;1292;63031;-79
2024/04/02 00:48:38;;;;;;;;;;;;;;;21.22;41.90;99881.27;102731;1294;63067;-80
2024/04/02 00:51:04;;;;;;;;;;;;;;;21.22;41.90;99880.57;102987;1290;63058;-80
2024/04/02 00:53:30;;;;;;;;;;;;;;;21.22;42.02;99880.31;102675;1294;62975;-80
2024/04/02 00:55:55;;;;;;;;;;;;;;;21.22;41.94;99881.41;102696;1292;63001;-80
2024/04/02 00:58:21;;;;;;;;;;;;;;;21.21;41.90;99875.79;102631;1292;63975;-80
2024/04/02 01:00:46;;;;;;;;;;;;;;;21.21;41.86;99874.17;102734;1289;63503;-80
2024/04/02 01:03:12;;;;;;;;;;;;;;;21.22;41.97;99875.17;102759;1290;63077;-80
2024/04/02 01:05:38;;;;;;;;;;;;;;;21.21;41.92;99874.70;102788;1291;63006;-82
2024/04/02 01:08:03;;;;;;;;;;;;;;;21.21;41.90;99874.69;102707;1294;63006;-80
2024/04/02 01:10:30;;;;;;;;;;;;;;;21.21;41.92;99876.30;102733;1289;63083;-79
2024/04/02 01:12:56;;;;;;;;;;;;;;;21.21;41.88;99875.41;102936;1291;63016;-81
2024/04/02 01:15:22;;;;;;;;;;;;;;;21.21;41.86;99877.03;102715;1289;63066;-81
2024/04/02 01:17:48;;;;;;;;;;;;;;;21.21;41.83;99876.88;102769;1289;62982;-82
2024/04/02 01:20:14;;;;;;;;;;;;;;;21.21;41.90;99875.80;102710;1289;62926;-82
2024/04/02 01:22:39;;;;;;;;;;;;;;;21.20;41.87;99879.05;102753;1292;64180;-81
2024/04/02 01:25:05;;;;;;;;;;;;;;;21.20;41.89;99873.89;102911;1291;76112;-80
2024/04/02 01:27:31;;;;;;;;;;;;;;;21.21;41.78;99874.73;102741;1292;63004;-80
2024/04/02 01:29:56;;;;;;;;;;;;;;;21.20;41.85;99871.73;102927;1289;62933;-80
2024/04/02 01:32:22;;;;;;;;;;;;;;;21.20;41.82;99868.34;102737;1294;63109;-79
2024/04/02 01:34:47;;;;;;;;;;;;;;;21.20;41.82;99865.83;102767;1292;63053;-78
2024/04/02 01:37:13;;;;;;;;;;;;;;;21.20;41.81;99861.56;102905;1290;77050;-80
2024/04/02 01:39:39;;;;;;;;;;;;;;;21.19;41.80;99859.61;102909;1290;62965;-81
2024/04/02 01:42:04;;;;;;;;;;;;;;;21.20;41.78;99854.61;102903;1292;63010;-80
2024/04/02 01:44:30;;;;;;;;;;;;;;;21.19;41.78;99855.70;102653;1292;63962;-81
2024/04/02 01:46:55;;;;;;;;;;;;;;;21.19;41.68;99856.41;102784;1294;63055;-80
2024/04/02 01:49:21;;;;;;;;;;;;;;;21.20;41.89;99857.97;102696;1297;76127;-82
2024/04/02 01:51:47;;;;;;;;;;;;;;;21.20;41.71;99854.59;102919;1289;62915;-79
2024/04/02 01:54:12;;;;;;;;;;;;;;;21.20;41.72;99854.25;102903;1290;62946;-81
2024/04/02 01:56:39;;;;;;;;;;;;;;;21.19;41.82;99853.73;102935;1292;63020;-80
2024/04/02 01:59:04;;;;;;;;;;;;;;;21.19;41.76;99851.23;102933;1290;63328;-80
2024/04/02 02:01:30;;;;;;;;;;;;;;;21.19;41.72;99842.13;103005;1294;62987;-80
2024/04/02 02:03:55;;;;;;;;;;;;;;;21.19;41.78;99837.83;102937;1292;62995;-81
2024/04/02 02:06:21;;;;;;;;;;;;;;;21.19;41.71;99834.45;102916;1294;63007;-80
2024/04/02 02:08:46;;;;;;;;;;;;;;;21.19;41.69;99829.60;102707;1291;63081;-80
2024/04/02 02:11:12;;;;;;;;;;;;;;;21.19;41.74;99828.18;102734;1294;62994;-80
2024/04/02 02:13:38;;;;;;;;;;;;;;;21.18;41.59;99824.63;102769;1292;63058;-80
2024/04/02 02:16:04;;;;;;;;;;;;;;;21.19;41.74;99822.48;102888;1293;63378;-80
2024/04/02 02:18:29;;;;;;;;;;;;;;;21.18;41.72;99824.70;102945;1292;63033;-80
2024/04/02 02:20:56;;;;;;;;;;;;;;;21.19;41.79;99831.97;102738;1292;63026;-81
2024/04/02 02:23:21;;;;;;;;;;;;;;;21.18;41.75;99828.96;102049;1290;1022203;-83
2024/04/02 02:25:47;;;;;;;;;;;;;;;21.19;41.68;99827.48;102941;1290;63004;-81
2024/04/02 02:28:13;;;;;;;;;;;;;;;21.18;41.62;99823.42;102796;1291;63094;-81
2024/04/02 02:30:38;;;;;;;;;;;;;;;21.18;41.77;99824.46;102900;1290;62914;-81
2024/04/02 02:33:04;;;;;;;;;;;;;;;21.18;41.67;99825.56;102728;1294;62984;-79
2024/04/02 02:35:29;;;;;;;;;;;;;;;21.18;41.64;99817.67;102929;1291;63007;-81
2024/04/02 02:37:55;;;;;;;;;;;;;;;21.18;41.68;99816.98;102822;1292;63027;-80
2024/04/02 02:40:21;;;;;;;;;;;;;;;21.18;41.64;99815.41;102952;1291;63020;-81
2024/04/02 02:42:47;;;;;;;;;;;;;;;21.18;41.58;99814.86;102714;1290;63007;-80
2024/04/02 02:45:12;;;;;;;;;;;;;;;21.18;41.65;99810.40;102756;1294;63070;-78
2024/04/02 02:47:38;;;;;;;;;;;;;;;21.17;41.51;99807.73;102923;1292;63090;-81
2024/04/02 02:50:05;;;;;;;;;;;;;;;21.18;41.53;99805.04;102784;1294;63487;-80
2024/04/02 02:52:30;;;;;;;;;;;;;;;21.18;41.72;99806.27;102932;1292;63001;-79
2024/04/02 02:54:56;;;;;;;;;;;;;;;21.18;41.73;99799.49;102755;1292;63119;-81
2024/04/02 02:57:21;;;;;;;;;;;;;;;21.18;41.49;99799.99;102729;1290;72009;-81
2024/04/02 02:59:47;;;;;;;;;;;;;;;21.17;41.60;99792.70;102913;1292;63020;-80
2024/04/02 03:02:13;;;;;;;;;;;;;;;21.17;41.61;99787.54;102948;1292;63014;-82
2024/04/02 03:04:39;;;;;;;;;;;;;;;21.18;41.59;99785.37;102713;1292;63052;-81
2024/04/02 03:07:04;;;;;;;;;;;;;;;21.17;41.49;99779.48;102928;1289;64137;-81
2024/04/02 03:09:31;;;;;;;;;;;;;;;21.17;41.52;99775.21;102722;1291;63041;-81
2024/04/02 03:11:57;;;;;;;;;;;;;;;21.17;41.52;99770.39;102960;1290;76910;-79
2024/04/02 03:14:22;;;;;;;;;;;;;;;21.17;41.57;99753.21;102905;1292;63058;-81
2024/04/02 03:16:48;;;;;;;;;;;;;;;21.17;41.64;99730.33;102708;1292;64096;-80
2024/04/02 03:19:13;;;;;;;;;;;;;;;21.16;41.48;99711.23;102746;1294;63101;-80
2024/04/02 03:21:39;;;;;;;;;;;;;;;21.16;41.58;99704.95;102986;1289;62997;-80
2024/04/02 03:24:05;;;;;;;;;;;;;;;21.17;41.48;99723.55;102669;1291;77056;-80
2024/04/02 03:26:30;;;;;;;;;;;;;;;21.16;41.45;99733.59;102731;1292;63106;-80
2024/04/02 03:28:56;;;;;;;;;;;;;;;21.16;41.55;99726.76;102926;1292;63007;-80
2024/04/02 03:31:21;;;;;;;;;;;;;;;21.16;41.59;99718.00;102755;1292;64533;-80
2024/04/02 03:33:47;;;;;;;;;;;;;;;21.17;41.45;99716.57;102735;1292;63003;-81
2024/04/02 03:36:13;;;;;;;;;;;;;;;21.16;41.44;99716.96;102805;1291;63029;-82
2024/04/02 03:38:39;;;;;;;;;;;;;;;21.16;41.49;99713.17;102677;1294;63097;-81
2024/04/02 03:41:12;;;;;;;;;;;;;;;21.16;41.35;99720.38;102735;1291;63005;-80
2024/04/02 03:43:38;;;;;;;;;;;;;;;21.16;41.42;99721.05;102881;1290;72288;-80
2024/04/02 03:46:04;;;;;;;;;;;;;;;21.16;41.49;99722.86;102623;1290;63093;-81
2024/04/02 03:48:30;;;;;;;;;;;;;;;21.16;41.36;99723.93;102733;1294;63040;-81
2024/04/02 03:50:56;;;;;;;;;;;;;;;21.16;41.49;99722.89;102764;1292;63014;-80
2024/04/02 03:53:21;;;;;;;;;;;;;;;21.16;41.51;99723.74;102713;1292;64151;-80
2024/04/02 03:55:48;;;;;;;;;;;;;;;21.16;41.51;99730.73;102762;1294;63064;-81
2024/04/02 03:58:13;;;;;;;;;;;;;;;21.16;41.44;99728.46;102721;1292;63045;-79
2024/04/02 04:00:42;;;;;;;;;;;;;;;21.15;41.34;99725.44;102786;1291;63064;-80
2024/04/02 04:03:09;;;;;;;;;;;;;;;21.15;41.35;99721.70;102663;1291;62890;-82
2024/04/02 04:05:34;;;;;;;;;;;;;;;21.15;41.30;99717.59;102722;1294;72224;-80
2024/04/02 04:08:00;;;;;;;;;;;;;;;21.15;41.28;99720.67;102741;1294;63061;-81
2024/04/02 04:10:25;;;;;;;;;;;;;;;21.14;41.35;99720.20;102761;1289;63466;-80
2024/04/02 04:12:51;;;;;;;;;;;;;;;21.14;41.34;99720.91;102961;1291;63001;-80
2024/04/02 04:15:17;;;;;;;;;;;;;;;21.13;41.27;99726.33;102959;1291;63007;-80
2024/04/02 04:17:42;;;;;;;;;;;;;;;21.13;41.22;99726.73;102571;1292;72598;-81
2024/04/02 04:20:08;;;;;;;;;;;;;;;21.13;41.33;99722.46;102767;1289;63088;-80
2024/04/02 04:22:34;;;;;;;;;;;;;;;21.12;41.41;99716.80;102972;1291;63011;-82
2024/04/02 04:25:01;;;;;;;;;;;;;;;21.11;41.42;99715.42;102698;1292;63816;-80
2024/04/02 04:27:32;;;;;;;;;;;;;;;21.10;41.26;99711.95;102965;1292;63013;-81
2024/04/02 04:29:59;;;;;;;;;;;;;;;21.09;41.36;99710.05;102906;1291;74986;-80
2024/04/02 04:32:24;;;;;;;;;;;;;;;21.09;41.24;99709.73;102942;1291;63302;-80
2024/04/02 04:34:50;;;;;;;;;;;;;;;21.08;41.19;99709.27;103081;1292;63471;-81
2024/04/02 04:37:16;;;;;;;;;;;;;;;21.07;41.26;99712.94;102929;1291;63076;-81
2024/04/02 04:39:41;;;;;;;;;;;;;;;21.05;41.38;99715.36;103172;1294;63654;-80
2024/04/02 04:42:07;;;;;;;;;;;;;;;21.05;41.25;99709.01;103378;1290;62988;-80
2024/04/02 04:44:33;;;;;;;;;;;;;;;21.03;41.24;99705.00;102809;1292;63102;-83
2024/04/02 04:46:59;;;;;;;;;;;;;;;21.03;41.54;99703.41;103033;1289;62962;-80
2024/04/02 04:49:24;;;;;;;;;;;;;;;21.01;41.28;99704.48;103098;1294;64055;-80
2024/04/02 04:51:50;;;;;;;;;;;;;;;21.00;41.40;99702.69;103504;1292;63714;-79
2024/04/02 04:54:16;;;;;;;;;;;;;;;20.97;41.40;99703.06;103508;1291;62928;-80
2024/04/02 04:56:41;;;;;;;;;;;;;;;20.93;41.49;99703.58;103509;1291;62995;-81
2024/04/02 04:59:07;;;;;;;;;;;;;;;20.90;41.53;99702.91;103913;1290;62869;-81
2024/04/02 05:01:32;;;;;;;;;;;;;;;20.87;41.37;99704.05;104206;1291;62931;-81
2024/04/02 05:03:58;;;;;;;;;;;;;;;20.87;41.49;99704.13;104402;1290;63046;-80
2024/04/02 05:06:23;;;;;;;;;;;;;;;20.87;41.57;99698.23;103982;1290;63010;-80
2024/04/02 05:08:49;;;;;;;;;;;;;;;20.87;41.47;99697.87;103922;1294;63047;-81
2024/04/02 05:11:15;;;;;;;;;;;;;;;20.86;41.47;99702.23;104198;1289;63004;-82
2024/04/02 05:13:41;;;;;;;;;;;;;;;20.87;41.49;99705.04;104120;1289;73471;-80
2024/04/02 05:16:07;;;;;;;;;;;;;;;20.87;41.57;99703.77;103879;1294;62998;-81
2024/04/02 05:18:32;;;;;;;;;;;;;;;20.87;41.41;99703.75;103824;1289;63005;-80
2024/04/02 05:20:58;;;;;;;;;;;;;;;20.88;41.52;99711.52;103878;1292;63001;-81
2024/04/02 05:23:26;;;;;;;;;;;;;;;20.88;41.40;99711.11;103823;1289;63197;-80
2024/04/02 05:25:56;;;;;;;;;;;;;;;20.89;41.42;99707.27;103925;1290;62797;-80
2024/04/02 05:28:22;;;;;;;;;;;;;;;20.90;41.24;99704.52;103912;1289;76232;-80
2024/04/02 05:30:47;;;;;;;;;;;;;;;20.91;41.28;99704.32;103544;1291;63032;-81
2024/04/02 05:33:13;;;;;;;;;;;;;;;20.91;41.32;99704.86;103941;1289;64473;-80
2024/04/02 05:35:38;;;;;;;;;;;;;;;20.92;41.25;99704.88;103801;1291;63078;-81
2024/04/02 05:38:04;;;;;;;;;;;;;;;20.94;41.40;99710.48;103827;1289;62882;-80
2024/04/02 05:40:31;;;;;;;;;;;;;;;20.95;41.48;99712.02;103676;1290;76162;-80
2024/04/02 05:42:56;;;;;;;;;;;;;;;20.96;41.42;99714.98;103848;1289;62955;-80
2024/04/02 05:45:22;;;;;;;;;;;;;;;20.96;41.21;99711.94;103765;1290;62994;-81
2024/04/02 05:47:47;;;;;;;;;;;;;;;20.96;41.35;99716.57;103681;1291;63103;-80
2024/04/02 05:50:15;;;;;;;;;;;;;;;20.97;41.35;99714.69;103614;1290;62994;-80
2024/04/02 05:52:41;;;;;;;;;;;;;;;20.99;41.21;99716.34;104010;1289;76099;-80
2024/04/02 05:55:06;;;;;;;;;;;;;;;21.00;41.22;99713.93;104354;1290;63443;-81
2024/04/02 05:57:32;;;;;;;;;;;;;;;21.00;41.34;99716.42;104561;1290;62988;-80
2024/04/02 05:59:58;;;;;;;;;;;;;;;21.01;41.31;99716.28;104199;1291;63358;-79
2024/04/02 06:02:23;;;;;;;;;;;;;;;21.03;41.45;99715.39;104719;1290;60891;-79
2024/04/02 06:04:50;;;;;;;;;;;;;;;21.07;41.50;99719.04;104885;1291;62872;-79
2024/04/02 06:07:15;;;;;;;;;;;;;;;21.09;41.58;99721.34;104331;1289;62969;-81
2024/04/02 06:09:42;;;;;;;;;;;;;;;21.11;41.70;99721.56;104145;1294;63037;-79
2024/04/02 06:12:07;;;;;;;;;;;;;;;21.12;41.59;99721.04;103763;1290;63005;-80
2024/04/02 06:14:33;;;;;;;;;;;;;;;21.13;41.48;99712.27;103722;1291;62911;-80
2024/04/02 06:16:58;;;;;;;;;;;;;;;21.12;41.18;99707.19;104029;1291;63090;-81
2024/04/02 06:19:24;;;;;;;;;;;;;;;21.11;40.95;99715.42;103994;1292;63023;-80
2024/04/02 06:21:49;;;;;;;;;;;;;;;21.12;41.07;99731.30;103796;1290;63435;-82
2024/04/02 06:24:15;;;;;;;;;;;;;;;21.13;40.94;99740.55;103809;1289;62979;-80
2024/04/02 06:26:41;;;;;;;;;;;;;;;21.14;40.95;99755.05;103991;1291;63013;-80
2024/04/02 06:29:07;;;;;;;;;;;;;;;21.15;40.80;99778.28;104124;1292;62875;-80
2024/04/02 06:31:32;;;;;;;;;;;;;;;21.15;40.72;99796.86;104033;1290;62994;-81
2024/04/02 06:33:58;;;;;;;;;;;;;;;21.15;40.67;99795.63;104000;1292;62846;-81
2024/04/02 06:36:23;;;;;;;;;;;;;;;21.14;40.42;99805.69;103995;1289;63115;-81
2024/04/02 06:38:49;;;;;;;;;;;;;;;21.14;40.35;99806.40;104121;1291;62865;-80
2024/04/02 06:41:15;;;;;;;;;;;;;;;21.15;40.33;99805.10;103934;1294;63398;-82
2024/04/02 06:43:40;;;;;;;;;;;;;;;21.15;40.29;99807.59;104726;1291;62790;-83
2024/04/02 06:46:06;;;;;;;;;;;;;;;21.16;40.26;99815.38;104690;1291;61284;-82
2024/04/02 06:48:32;;;;;;;;;;;;;;;21.17;40.28;99824.21;104478;1292;62862;-84
2024/04/02 06:51:04;;;;;;;;;;;;;;;21.18;40.19;99826.47;104495;1296;63712;-82
2024/04/02 06:53:32;;;;;;;;;;;;;;;21.19;40.19;99821.90;104706;1294;63585;-83
2024/04/02 06:55:57;;;;;;;;;;;;;;;21.22;40.26;99822.52;104749;1289;62949;-82
2024/04/02 06:58:23;;;;;;;;;;;;;;;21.26;40.36;99820.95;104367;1297;63554;-81
2024/04/02 07:00:49;;;;;;;;;;;;;;;21.30;40.43;99817.42;104453;1290;62944;-82
2024/04/02 07:03:23;;;;;;;;;;;;;;;21.31;40.50;99818.90;104558;1291;62796;-82
2024/04/02 07:05:49;;;;;;;;;;;;;;;21.32;40.54;99822.58;104111;1291;62940;-82
2024/04/02 07:08:16;;;;;;;;;;;;;;;21.31;40.46;99820.52;104515;1291;72618;-82
2024/04/02 07:10:44;;;;;;;;;;;;;;;21.31;40.31;99822.35;104158;1290;62866;-83
2024/04/02 07:13:14;;;;;;;;;;;;;;;21.30;40.20;99819.73;104866;1289;62811;-82
2024/04/02 07:15:40;;;;;;;;;;;;;;;21.28;40.19;99817.90;104441;1291;62774;-83
2024/04/02 07:18:06;;;;;;;;;;;;;;;21.27;39.98;99818.02;104346;1291;63734;-81
2024/04/02 07:20:32;;;;;;;;;;;;;;;21.24;39.87;99812.90;104114;1290;62973;-81
2024/04/02 07:22:58;;;;;;;;;;;;;;;21.21;39.66;99825.15;104205;1289;64181;-83
2024/04/02 07:25:24;;;;;;;;;;;;;;;21.18;39.46;99831.61;104490;1291;60836;-81
2024/04/02 07:27:50;;;;;;;;;;;;;;;21.17;39.35;99837.14;103983;1292;64167;-80
2024/04/02 07:30:15;;;;;;;;;;;;;;;21.16;39.38;99836.11;104163;1291;62910;-83
2024/04/02 07:32:41;;;;;;;;;;;;;;;21.17;39.44;99838.38;104172;1294;76612;-82
2024/04/02 07:35:06;;;;;;;;;;;;;;;21.18;39.40;99837.95;104448;1291;62986;-82
2024/04/02 07:37:32;;;;;;;;;;;;;;;21.19;39.28;99833.73;104328;1291;62957;-82
2024/04/02 07:39:58;;;;;;;;;;;;;;;21.19;39.43;99839.24;103995;1291;64277;-82
2024/04/02 07:42:25;;;;;;;;;;;;;;;21.20;39.26;99835.91;104046;1292;63031;-82
2024/04/02 07:44:51;;;;;;;;;;;;;;;21.22;39.28;99838.81;104377;1290;62994;-82
2024/04/02 07:47:16;;;;;;;;;;;;;;;21.24;39.26;99844.58;104195;1290;62964;-82
2024/04/02 07:49:42;;;;;;;;;;;;;;;21.23;39.20;99845.31;104173;1291;63381;-80
2024/04/02 07:52:07;;;;;;;;;;;;;;;21.25;39.24;99842.89;104423;1291;63007;-82
2024/04/02 07:54:33;;;;;;;;;;;;;;;21.26;39.12;99846.88;104337;1289;63646;-82
2024/04/02 07:56:59;;;;;;;;;;;;;;;21.28;39.35;99854.94;104639;1294;62899;-82
2024/04/02 07:59:24;;;;;;;;;;;;;;;21.31;39.53;99860.77;104427;1291;63090;-82
2024/04/02 08:01:50;;;;;;;;;;;;;;;21.33;39.63;99852.34;104598;1291;62893;-80
2024/04/02 08:04:17;;;;;;;;;;;;;;;21.35;39.63;99858.30;104762;1293;75273;-80
2024/04/02 08:06:47;;;;;;;;;;;;;;;21.37;39.75;99859.02;104328;1289;64492;-81
2024/04/02 08:09:12;;;;;;;;;;;;;;;21.39;39.75;99851.63;104198;1291;63052;-81
2024/04/02 08:11:38;;;;;;;;;;;;;;;21.40;39.74;99846.71;103903;1289;62924;-82
2024/04/02 08:14:04;;;;;;;;;;;;;;;21.41;39.68;99850.02;103769;1294;63000;-81
2024/04/02 08:16:33;;;;;;;;;;;;;;;21.41;39.52;99845.77;103754;1290;62937;-82
2024/04/02 08:18:59;;;;;;;;;;;;;;;21.40;39.52;99858.35;103540;1291;63014;-82
2024/04/02 08:21:24;;;;;;;;;;;;;;;21.40;39.40;99866.75;103816;1289;63057;-83
2024/04/02 08:23:50;;;;;;;;;;;;;;;21.39;39.32;99849.34;104424;1293;61372;-82
2024/04/02 08:26:15;;;;;;;;;;;;;;;21.39;39.26;99840.05;104507;1289;63398;-82
2024/04/02 08:28:41;;;;;;;;;;;;;;;21.38;39.13;99851.38;104633;1291;63067;-81
2024/04/02 08:31:07;;;;;;;;;;;;;;;21.39;39.14;99848.10;104387;1290;62962;-83
2024/04/02 08:33:33;;;;;;;;;;;;;;;21.39;39.11;99841.48;104332;1292;62895;-81
2024/04/02 08:35:59;;;;;;;;;;;;;;;21.40;39.08;99838.52;104345;1291;62972;-82
2024/04/02 08:38:24;;;;;;;;;;;;;;;21.41;39.04;99836.48;103669;1291;62916;-80
2024/04/02 08:40:54;;;;;;;;;;;;;;;21.41;39.04;99837.88;103652;1290;63011;-81
2024/04/02 08:43:20;;;;;;;;;;;;;;;21.40;39.01;99827.95;103787;1291;62918;-80
2024/04/02 08:45:46;;;;;;;;;;;;;;;21.40;38.97;99831.73;104103;1292;62979;-80
2024/04/02 08:48:12;;;;;;;;;;;;;;;21.40;38.87;99840.86;103848;1292;63619;-82
2024/04/02 08:50:40;;;;;;;;;;;;;;;21.40;38.91;99842.05;104094;1290;63171;-82
2024/04/02 08:53:06;;;;;;;;;;;;;;;21.41;38.86;99846.85;105030;1290;63052;-82
2024/04/02 08:55:32;;;;;;;;;;;;;;;21.42;38.81;99838.88;104070;1290;61009;-81
2024/04/02 08:57:57;;;;;;;;;;;;;;;21.45;38.75;99849.77;104639;1291;63001;-81
2024/04/02 09:00:23;;;;;;;;;;;;;;;21.49;38.70;99849.04;104093;1290;63163;-81
2024/04/02 09:02:52;;;;;;;;;;;;;;;21.53;38.61;99852.83;104284;1291;60579;-80
2024/04/02 09:05:18;;;;;;;;;;;;;;;21.57;38.66;99865.86;104411;1294;62922;-79
2024/04/02 09:07:43;;;;;;;;;;;;;;;21.58;38.52;99861.30;104268;1291;62892;-81
2024/04/02 09:10:09;;;;;;;;;;;;;;;21.58;38.54;99863.04;104563;1291;62950;-82
2024/04/02 09:12:34;;;;;;;;;;;;;;;21.58;38.37;99872.58;104413;1291;63170;-82
2024/04/02 09:15:00;;;;;;;;;;;;;;;21.59;38.43;99875.17;105413;1290;62999;-84
2024/04/02 09:17:26;;;;;;;;;;;;;;;21.59;38.48;99868.52;104762;1291;62968;-83
2024/04/02 09:19:51;;;;;;;;;;;;;;;21.60;38.59;99876.54;104182;1294;60582;-83
2024/04/02 09:22:17;;;;;;;;;;;;;;;21.60;38.73;99890.16;104371;1289;63502;-81
2024/04/02 09:24:43;;;;;;;;;;;;;;;21.59;38.62;99897.40;104596;1291;63139;-82
2024/04/02 09:27:08;;;;;;;;;;;;;;;21.58;38.59;99900.14;104407;1294;63808;-82
2024/04/02 09:29:34;;;;;;;;;;;;;;;21.57;38.67;99896.42;103918;1294;62944;-81
2024/04/02 09:32:00;;;;;;;;;;;;;;;21.57;38.69;99900.24;103832;1291;75941;-81
2024/04/02 09:34:26;;;;;;;;;;;;;;;21.56;38.72;99895.83;104101;1291;61660;-81
2024/04/02 09:36:53;;;;;;;;;;;;;;;21.56;38.73;99902.10;103981;1290;63011;-82
2024/04/02 09:39:20;;;;;;;;;;;;;;;21.55;38.57;99908.09;104445;1291;62983;-83
2024/04/02 09:41:49;;;;;;;;;;;;;;;21.55;38.68;99909.02;104281;1288;77215;-83
2024/04/02 09:44:16;;;;;;;;;;;;;;;21.54;38.65;99917.19;104433;1291;62201;-81
2024/04/02 09:46:42;;;;;;;;;;;;;;;21.53;38.62;99918.52;104314;1291;63120;-82
2024/04/02 09:49:09;;;;;;;;;;;;;;;21.52;38.59;99920.13;104723;1290;63007;-82
2024/04/02 09:51:35;;;;;;;;;;;;;;;21.52;38.63;99928.77;103884;1289;74806;-81
2024/04/02 09:54:01;;;;;;;;;;;;;;;21.52;38.48;99923.08;104434;1292;62876;-81
2024/04/02 09:56:27;;;;;;;;;;;;;;;21.51;38.35;99934.63;104407;1292;60957;-80
2024/04/02 09:58:53;;;;;;;;;;;;;;;21.49;38.17;99937.06;104333;1289;63020;-81
2024/04/02 10:01:21;;;;;;;;;;;;;;;21.48;38.01;99934.82;104898;1291;62970;-82
2024/04/02 10:03:48;;;;;;;;;;;;;;;21.47;38.03;99939.06;105034;1292;62079;-83
2024/04/02 10:06:14;;;;;;;;;;;;;;;21.50;38.25;99943.23;104723;1291;63003;-82
2024/04/02 10:08:39;;;;;;;;;;;;;;;21.54;38.42;99943.45;104823;1291;62981;-82
2024/04/02 10:11:06;;;;;;;;;;;;;;;21.56;38.37;99943.63;104614;1291;62961;-82
2024/04/02 10:13:35;;;;;;;;;;;;;;;21.57;38.30;99948.55;105032;1291;63026;-81
2024/04/02 10:16:03;;;;;;;;;;;;;;;21.60;38.38;99948.14;105057;1289;62729;-81
2024/04/02 10:18:29;;;;;;;;;;;;;;;21.62;38.34;99939.79;104939;1290;72770;-81
2024/04/02 10:20:59;;;;;;;;;;;;;;;21.64;38.21;99943.59;104911;1291;60924;-82
2024/04/02 10:23:25;;;;;;;;;;;;;;;21.64;37.97;99942.64;104779;1290;62736;-81
2024/04/02 10:25:50;;;;;;;;;;;;;;;21.63;37.74;99946.83;105073;1289;63374;-83
2024/04/02 10:28:23;;;;;;;;;;;;;;;21.63;37.54;99937.77;104962;1290;62904;-83
2024/04/02 10:30:49;;;;;;;;;;;;;;;21.62;37.42;99948.69;104628;1290;75904;-82
2024/04/02 10:33:21;;;;;;;;;;;;;;;21.63;37.51;99945.10;104745;1290;63011;-81
2024/04/02 10:35:46;;;;;;;;;;;;;;;21.62;37.28;99947.81;104418;1292;62800;-83
2024/04/02 10:38:12;;;;;;;;;;;;;;;21.62;37.25;99947.66;104291;1291;63096;-82
2024/04/02 10:40:38;;;;;;;;;;;;;;;21.61;37.27;99940.01;104450;1291;64123;-83
2024/04/02 10:43:03;;;;;;;;;;;;;;;21.61;37.18;99951.45;104623;1289;61297;-82
2024/04/02 10:45:30;;;;;;;;;;;;;;;21.61;37.02;99943.25;104783;1291;62434;-83
2024/04/02 10:47:56;;;;;;;;;;;;;;;21.60;36.96;99949.55;104806;1290;62907;-84
2024/04/02 10:50:22;;;;;;;;;;;;;;;21.60;37.00;99942.42;104761;1290;62983;-82
2024/04/02 10:52:48;;;;;;;;;;;;;;;21.59;36.93;99941.24;104731;1288;76363;-82
2024/04/02 10:55:13;;;;;;;;;;;;;;;21.59;36.87;99954.64;104513;1290;62912;-83
2024/04/02 10:57:39;;;;;;;;;;;;;;;21.59;36.75;99946.11;104817;1290;62952;-82
2024/04/02 11:00:14;;;;;;;;;;;;;;;21.59;36.61;99952.17;104912;1292;60821;-81
2024/04/02 11:02:41;;;;;;;;;;;;;;;21.60;36.60;99952.10;105401;1291;76015;-85
2024/04/02 11:05:16;;;;;;;;;;;;;;;21.63;36.63;99959.17;106051;1291;60833;-81
2024/04/02 11:07:45;;;;;;;;;;;;;;;21.67;36.68;99950.05;106032;1291;60662;-83
2024/04/02 11:10:11;;;;;;;;;;;;;;;21.70;36.80;99945.33;106205;1289;72572;-81
2024/04/02 11:12:36;;;;;;;;;;;;;;;21.72;36.90;99932.63;106045;1291;61668;-84
2024/04/02 11:15:02;;;;;;;;;;;;;;;21.74;36.80;99936.23;106152;1290;60292;-83
2024/04/02 11:17:28;;;;;;;;;;;;;;;21.74;36.70;99937.58;105859;1292;60581;-82
2024/04/02 11:19:56;;;;;;;;;;;;;;;21.74;36.73;99941.17;105875;1292;60611;-82
2024/04/02 11:25:12;;;;;;;;;;;;;;;21.73;36.39;99922.34;106118;1291;59961;-82
2024/04/02 11:27:37;;;;;;;;;;;;;;;21.73;36.29;99919.68;106020;1289;60354;-81
2024/04/02 11:30:03;;;;;;;;;;;;;;;21.72;36.36;99916.14;106109;1290;60432;-82
2024/04/02 11:32:29;;;;;;;;;;;;;;;21.72;36.34;99924.36;105911;1294;60550;-82
2024/04/02 11:35:01;;;;;;;;;;;;;;;21.71;36.29;99922.48;105972;1294;60180;-82
2024/04/02 11:37:28;;;;;;;;;;;;;;;21.72;36.23;99928.16;104925;1294;62844;-82
2024/04/02 11:39:54;;;;;;;;;;;;;;;21.73;36.18;99918.41;104727;1292;72714;-81
2024/04/02 11:42:20;;;;;;;;;;;;;;;21.74;36.17;99926.15;104572;1298;62970;-80
2024/04/02 11:44:46;;;;;;;;;;;;;;;21.76;35.90;99929.44;104656;1293;62858;-81
2024/04/02 11:47:14;;;;;;;;;;;;;;;21.77;35.90;99922.02;104183;1294;62882;-81
2024/04/02 11:49:41;;;;;;;;;;;;;;;21.78;35.82;99924.23;103687;1294;62947;-82
2024/04/02 11:52:07;;;;;;;;;;;;;;;21.78;35.68;99935.34;103664;1293;77026;-80
2024/04/02 11:54:33;;;;;;;;;;;;;;;21.76;35.61;99939.76;103729;1294;63196;-82
2024/04/02 12:02:26;;;;;;;;;;;;;;;21.74;35.63;99947.33;104619;1293;76024;-81
2024/04/02 12:04:54;;;;;;;;;;;;;;;21.74;35.75;99954.63;105216;1294;60721;-82
2024/04/02 12:07:20;;;;;;;;;;;;;;;21.75;35.62;99943.98;105343;1291;62956;-81
2024/04/02 12:09:49;;;;;;;;;;;;;;;21.76;35.67;99934.55;105028;1292;62938;-82
2024/04/02 12:12:15;;;;;;;;;;;;;;;21.77;35.58;99928.77;105531;1294;76157;-82
2024/04/02 12:14:40;;;;;;;;;;;;;;;21.79;35.58;99948.17;105680;1289;61756;-81
2024/04/02 12:17:06;;;;;;;;;;;;;;;21.81;35.85;99938.86;105414;1291;60936;-82
2024/04/02 12:19:32;;;;;;;;;;;;;;;21.84;35.91;99934.45;105322;1291;61445;-81
2024/04/02 12:21:58;;;;;;;;;;;;;;;21.86;36.02;99931.43;104944;1292;62783;-80
2024/04/02 12:24:23;;;;;;;;;;;;;;;21.86;36.13;99941.77;103843;1289;63084;-81
2024/04/02 12:26:49;;;;;;;;;;;;;;;21.87;36.25;99933.67;103994;1292;61026;-81
2024/04/02 12:29:14;;;;;;;;;;;;;;;21.87;36.45;99934.48;103955;1290;62881;-80
2024/04/02 12:31:40;;;;;;;;;;;;;;;21.88;36.50;99943.60;103635;1297;62856;-81
2024/04/02 12:34:05;;;;;;;;;;;;;;;21.87;36.68;99944.56;103867;1292;63001;-82
2024/04/02 12:36:31;;;;;;;;;;;;;;;21.87;36.74;99943.46;103679;1291;62918;-82